This is the latest recevied weather packets stored in our database for station/object K1PM-WX. If no packets are shown the sender has not sent any weather packets the latest 1 day(s).
| Time | Temp. | Humidity | Pressure | Rain* | Wind** | Luminosity | Snow |
|---|---|---|---|---|---|---|---|
| 1777982336 | 19.44° C | 66% | 1024 hPa | 0 mm | 6.71 m/s, 225° | - | - |
| 1777982036 | 19.44° C | 66% | 1024 hPa | 0 mm | 4.02 m/s, 180° | - | - |
| 1777981737 | 19.44° C | 67% | 1024 hPa | 0 mm | 4.47 m/s, 203° | - | - |
| 1777981437 | 19.44° C | 67% | 1024 hPa | 0 mm | 6.71 m/s, 225° | - | - |
| 1777981137 | 19.44° C | 67% | 1024 hPa | 0 mm | 8.05 m/s, 203° | - | - |
| 1777980836 | 18.89° C | 68% | 1024 hPa | 0 mm | 8.94 m/s, 225° | - | - |
| 1777980537 | 18.89° C | 68% | 1024 hPa | 0 mm | 6.26 m/s, 203° | - | - |
| 1777980236 | 18.89° C | 69% | 1024 hPa | 0 mm | 6.26 m/s, 225° | - | - |
| 1777979937 | 18.89° C | 70% | 1024 hPa | 0 mm | 5.36 m/s, 248° | - | - |
| 1777979643 | 18.89° C | 70% | 1024 hPa | 0 mm | 4.47 m/s, 225° | - | - |
| 1777979336 | 18.89° C | 71% | 1024 hPa | 0 mm | 6.26 m/s, 248° | - | - |
| 1777979036 | 18.33° C | 72% | 1024 hPa | 0 mm | 2.68 m/s, 225° | - | - |
| 1777978736 | 18.33° C | 72% | 1024 hPa | 0 mm | 4.92 m/s, 225° | - | - |
| 1777978436 | 18.33° C | 72% | 1024 hPa | 0 mm | 6.26 m/s, 270° | - | - |
| 1777978137 | 18.33° C | 73% | 1024 hPa | 0 mm | 3.13 m/s, 203° | - | - |
| 1777977837 | 17.78° C | 74% | 1024 hPa | 0 mm | 3.13 m/s, 180° | - | - |
| 1777977537 | 17.78° C | 75% | 1024 hPa | 0 mm | 4.02 m/s, 203° | - | - |
| 1777977236 | 17.78° C | 75% | 1023 hPa | 0 mm | 3.13 m/s, 180° | - | - |
| 1777976937 | 17.78° C | 75% | 1023 hPa | 0 mm | 4.92 m/s, 180° | - | - |
| 1777976636 | 17.78° C | 76% | 1023 hPa | 0 mm | 4.47 m/s, 203° | - | - |
| 1777976336 | 17.78° C | 76% | 1023 hPa | 0 mm | 4.47 m/s, 158° | - | - |
| 1777976036 | 17.78° C | 77% | 1023 hPa | 0 mm | 4.92 m/s, 203° | - | - |
| 1777975736 | 17.22° C | 78% | 1023 hPa | 0 mm | 4.02 m/s, 203° | - | - |
| 1777975436 | 17.22° C | 78% | 1023 hPa | 0 mm | 3.58 m/s, 203° | - | - |
| 1777975136 | 17.22° C | 80% | 1023 hPa | 0 mm | 4.47 m/s, 225° | - | - |
* Rain latest hour (hover to see other rain measurements)
** Current wind speed in m/s (hover to see current wind gust speed)